Nobleton, Florida
Current Conditions -  °F | °C
As of 12:15 PM on Friday 24 Oct 2014 (Local Time) from KINF Reporting Station
Clear Clear  
Wind Chill: 73°   Ceiling: Unl
Heat Index: 73°   Visibility: 10mi
Dew Point: 55°   Wind: 6mph
Humidity: 53%   Direction: 360°N
Pressure: 30.03"   Gusts: NA
Location:  28.65°N, 82.26°W
Report Text: KINF 241615Z AUTO 36005KT 10SM CLR 23/13 A3003 RMK AO2
Loading
Personal Weather Stations






























Interactive Weather Map
Tropical Storm Tracking
New forecast layout! Learn more

10-Day Weather Forecast

Advertisements
Track Severe Weather on mobile